createdAt,value
2023-08-12T00:00:33.931Z,6.22
2023-08-12T00:03:01.431Z,4.90
2023-08-12T00:05:28.666Z,6.95
2023-08-12T00:07:56.367Z,6.13
2023-08-12T00:10:23.538Z,6.72
2023-08-12T00:12:50.889Z,6.40
2023-08-12T00:15:18.338Z,7.38
2023-08-12T00:17:45.506Z,9.25
2023-08-12T00:20:13.853Z,5.40
2023-08-12T00:22:41.378Z,5.38
2023-08-12T00:25:08.539Z,4.28
2023-08-12T00:27:35.920Z,4.60
2023-08-12T00:30:02.822Z,7.63
2023-08-12T00:32:29.996Z,7.75
2023-08-12T00:34:58.445Z,6.25
2023-08-12T00:37:25.584Z,6.55
2023-08-12T00:39:53.139Z,4.97
2023-08-12T00:42:20.039Z,9.52
2023-08-12T00:44:47.158Z,4.88
2023-08-12T00:47:15.633Z,7.10
2023-08-12T00:49:46.361Z,7.05
2023-08-12T00:52:17.609Z,4.30
2023-08-12T00:54:45.236Z,4.18
2023-08-12T00:57:12.804Z,5.90
2023-08-12T00:59:42.974Z,4.63
2023-08-12T01:02:10.299Z,10.35
2023-08-12T01:04:37.661Z,6.38
2023-08-12T01:07:05.053Z,7.10
2023-08-12T01:09:32.725Z,4.38
2023-08-12T01:12:10.853Z,5.05
2023-08-12T01:14:48.591Z,7.32
2023-08-12T01:17:16.763Z,3.58
2023-08-12T01:19:46.261Z,6.28
2023-08-12T01:22:14.107Z,13.60
2023-08-12T01:24:42.694Z,5.82
2023-08-12T01:27:13.411Z,4.30
2023-08-12T01:29:49.922Z,4.72
2023-08-12T01:32:32.084Z,5.65
2023-08-12T01:35:21.896Z,7.75
2023-08-12T01:37:51.852Z,4.18
2023-08-12T01:40:21.063Z,4.05
2023-08-12T01:42:50.107Z,4.07
2023-08-12T01:45:17.578Z,6.80
2023-08-12T01:47:45.315Z,7.70
2023-08-12T01:50:12.682Z,4.82
2023-08-12T01:52:40.099Z,6.95
2023-08-12T01:55:07.592Z,5.72
2023-08-12T01:57:35.124Z,7.53
2023-08-12T02:00:06.826Z,6.68
2023-08-12T02:02:47.719Z,6.85
2023-08-12T02:05:18.061Z,5.85
2023-08-12T02:07:45.512Z,4.95
2023-08-12T02:10:12.744Z,5.47
2023-08-12T02:12:40.056Z,5.57
2023-08-12T02:15:07.656Z,5.70
2023-08-12T02:17:34.832Z,5.22
2023-08-12T02:20:02.355Z,5.55
2023-08-12T02:22:31.064Z,5.70
2023-08-12T02:24:58.289Z,4.20
2023-08-12T02:27:25.349Z,7.05
2023-08-12T02:29:52.443Z,8.02
2023-08-12T02:32:19.579Z,7.75
2023-08-12T02:34:46.705Z,3.83
2023-08-12T02:37:14.442Z,9.02
2023-08-12T02:39:41.934Z,6.13
2023-08-12T02:42:08.998Z,5.70
2023-08-12T02:44:36.355Z,8.35
2023-08-12T02:47:03.360Z,5.22
2023-08-12T02:49:30.463Z,10.80
2023-08-12T02:51:57.548Z,5.70
2023-08-12T02:54:24.558Z,4.05
2023-08-12T02:56:52.313Z,7.97
2023-08-12T02:59:19.463Z,5.55
2023-08-12T03:01:46.680Z,4.95
2023-08-12T03:04:14.207Z,6.20
2023-08-12T03:06:41.407Z,5.72
2023-08-12T03:09:08.475Z,4.95
2023-08-12T03:11:35.888Z,6.63
2023-08-12T03:14:05.516Z,8.82
2023-08-12T03:16:33.014Z,4.60
2023-08-12T03:18:59.933Z,9.00
2023-08-12T03:21:27.369Z,5.90
2023-08-12T03:23:54.961Z,4.53
2023-08-12T03:26:22.399Z,4.35
2023-08-12T03:28:49.802Z,8.82
2023-08-12T03:31:19.633Z,7.35
2023-08-12T03:33:46.932Z,4.82
2023-08-12T03:36:15.128Z,3.25
2023-08-12T03:38:43.568Z,6.05
2023-08-12T03:41:15.599Z,4.75
2023-08-12T03:43:43.537Z,6.80
2023-08-12T03:46:11.482Z,3.83
2023-08-12T03:48:39.737Z,7.32
2023-08-12T03:51:07.164Z,8.02
2023-08-12T03:53:34.549Z,7.93
2023-08-12T03:56:02.190Z,6.25
2023-08-12T03:58:31.056Z,8.27
2023-08-12T04:00:59.185Z,5.63
2023-08-12T04:03:26.406Z,9.57
2023-08-12T04:05:54.448Z,8.20
2023-08-12T04:08:24.394Z,7.20
2023-08-12T04:10:52.639Z,7.68
2023-08-12T04:13:20.252Z,9.18
2023-08-12T04:15:52.183Z,10.45
2023-08-12T04:18:19.928Z,7.03
2023-08-12T04:20:51.444Z,9.20
2023-08-12T04:23:18.934Z,6.78
2023-08-12T04:25:48.201Z,8.98
2023-08-12T04:28:16.251Z,7.70
2023-08-12T04:30:45.235Z,8.60
2023-08-12T04:33:14.347Z,12.07
2023-08-12T04:35:43.103Z,10.05
2023-08-12T04:38:10.964Z,8.13
2023-08-12T04:40:43.285Z,11.30
2023-08-12T04:43:11.235Z,9.05
2023-08-12T04:45:39.580Z,11.75
2023-08-12T04:48:10.035Z,12.05
2023-08-12T04:50:37.273Z,11.60
2023-08-12T04:53:04.728Z,15.18
2023-08-12T04:55:32.726Z,13.52
2023-08-12T04:58:01.063Z,14.93
2023-08-12T05:00:31.279Z,16.33
2023-08-12T05:02:59.059Z,15.13
2023-08-12T05:05:28.158Z,14.57
2023-08-12T05:07:55.452Z,19.05
2023-08-12T05:10:23.407Z,15.85
2023-08-12T05:12:53.739Z,20.27
2023-08-12T05:15:21.135Z,16.17
2023-08-12T05:17:49.197Z,17.10
2023-08-12T05:20:20.478Z,17.92
2023-08-12T05:22:47.899Z,20.25
2023-08-12T05:25:14.914Z,15.95
2023-08-12T05:27:42.792Z,16.63
2023-08-12T05:30:10.189Z,19.50
2023-08-12T05:32:37.123Z,15.68
2023-08-12T05:35:04.399Z,15.55
2023-08-12T05:37:31.490Z,16.80
2023-08-12T05:39:58.556Z,14.07
2023-08-12T05:42:25.561Z,16.52
2023-08-12T05:44:52.494Z,20.08
2023-08-12T05:47:19.327Z,17.75
2023-08-12T05:49:46.678Z,19.55
2023-08-12T05:52:13.992Z,20.33
2023-08-12T05:54:41.078Z,18.35
2023-08-12T05:57:08.161Z,16.65
2023-08-12T05:59:35.432Z,23.60
2023-08-12T06:02:02.747Z,20.27
2023-08-12T06:04:29.820Z,23.10
2023-08-12T06:06:56.855Z,21.42
2023-08-12T06:09:23.918Z,20.20
2023-08-12T06:11:51.383Z,21.40
2023-08-12T06:14:18.681Z,20.80
2023-08-12T06:16:45.685Z,21.25
2023-08-12T06:19:12.685Z,21.25
2023-08-12T06:21:39.746Z,23.60
2023-08-12T06:24:07.282Z,19.95
2023-08-12T06:26:34.669Z,21.80
2023-08-12T06:29:03.380Z,22.17
2023-08-12T06:31:32.920Z,23.27
2023-08-12T06:34:00.732Z,22.60
2023-08-12T06:36:27.897Z,21.70
2023-08-12T06:38:55.053Z,20.88
2023-08-12T06:41:22.022Z,22.88
2023-08-12T06:43:48.906Z,24.05
2023-08-12T06:46:16.228Z,21.88
2023-08-12T06:48:43.711Z,22.73
2023-08-12T06:51:13.360Z,23.35
2023-08-12T06:53:41.291Z,22.90
2023-08-12T06:56:08.278Z,24.00
2023-08-12T06:58:35.341Z,21.33
2023-08-12T07:01:02.295Z,19.00
2023-08-12T07:03:29.380Z,24.52
2023-08-12T07:05:56.839Z,17.20
2023-08-12T07:08:23.741Z,18.75
2023-08-12T07:10:52.978Z,14.35
2023-08-12T07:13:20.258Z,15.75
2023-08-12T07:15:47.275Z,16.02
2023-08-12T07:18:14.665Z,14.50
2023-08-12T07:20:41.761Z,10.27
2023-08-12T07:23:08.664Z,9.15
2023-08-12T07:25:35.670Z,4.25
2023-08-12T07:28:02.710Z,4.45
2023-08-12T07:30:29.734Z,5.00
2023-08-12T07:32:56.806Z,3.72
2023-08-12T07:35:24.216Z,7.95
2023-08-12T07:37:51.645Z,4.57
2023-08-12T07:40:18.682Z,4.90
2023-08-12T07:42:45.693Z,6.50
2023-08-12T07:45:12.620Z,4.03
2023-08-12T07:47:40.792Z,4.72
2023-08-12T07:50:08.310Z,2.78
2023-08-12T07:52:35.775Z,1.60
2023-08-12T07:55:03.677Z,4.38
2023-08-12T07:57:32.446Z,5.03
2023-08-12T07:59:59.330Z,3.63
2023-08-12T08:02:26.312Z,3.45
2023-08-12T08:04:53.754Z,1.23
2023-08-12T08:07:21.151Z,4.25
2023-08-12T08:09:48.038Z,4.57
2023-08-12T08:12:15.184Z,4.07
2023-08-12T08:14:42.322Z,3.03
2023-08-12T08:17:09.412Z,4.30
2023-08-12T08:19:36.586Z,3.45
2023-08-12T08:22:04.868Z,6.22
2023-08-12T08:24:32.077Z,8.15
2023-08-12T08:26:59.107Z,11.10
2023-08-12T08:29:26.598Z,6.57
2023-08-12T08:31:53.593Z,6.25
2023-08-12T08:34:20.697Z,2.80
2023-08-12T08:36:47.797Z,9.07
2023-08-12T08:39:14.869Z,7.07
2023-08-12T08:41:42.529Z,6.18
2023-08-12T08:44:10.806Z,4.20
2023-08-12T08:46:38.226Z,3.80
2023-08-12T08:49:05.732Z,6.53
2023-08-12T08:51:33.599Z,7.32
2023-08-12T08:54:03.882Z,3.40
2023-08-12T08:56:37.815Z,6.80
2023-08-12T08:59:11.833Z,6.65
2023-08-12T09:01:41.226Z,7.80
2023-08-12T09:04:09.097Z,6.13
2023-08-12T09:06:38.061Z,9.52
2023-08-12T09:09:10.417Z,7.25
2023-08-12T09:11:40.392Z,3.65
2023-08-12T09:14:08.116Z,7.95
2023-08-12T09:16:35.378Z,5.35
2023-08-12T09:19:02.332Z,4.57
2023-08-12T09:21:29.633Z,5.50
2023-08-12T09:23:56.883Z,2.92
2023-08-12T09:26:23.920Z,6.28
2023-08-12T09:28:51.945Z,7.70
2023-08-12T09:31:26.415Z,5.57
2023-08-12T09:33:54.563Z,5.20
2023-08-12T09:36:23.614Z,7.03
2023-08-12T09:38:50.732Z,4.53
2023-08-12T09:41:17.911Z,3.78
2023-08-12T09:43:46.075Z,5.50
2023-08-12T09:46:17.361Z,3.08
2023-08-12T09:48:45.269Z,4.22
2023-08-12T09:51:12.330Z,5.38
2023-08-12T09:53:39.468Z,5.18
2023-08-12T09:56:09.159Z,7.45
2023-08-12T09:58:38.335Z,3.45
2023-08-12T10:01:07.342Z,4.25
2023-08-12T10:03:35.740Z,3.80
2023-08-12T10:06:04.383Z,2.22
2023-08-12T10:08:32.826Z,7.65
2023-08-12T10:11:12.449Z,7.50
2023-08-12T10:13:41.947Z,4.93
2023-08-12T10:16:11.017Z,7.35
2023-08-12T10:18:40.928Z,5.53
2023-08-12T10:21:11.222Z,5.38
2023-08-12T10:23:38.478Z,6.28
2023-08-12T10:26:08.556Z,4.95
2023-08-12T10:28:38.910Z,8.27
2023-08-12T10:31:07.465Z,6.72
2023-08-12T10:33:41.280Z,3.30
2023-08-12T10:36:09.484Z,8.77
2023-08-12T10:38:37.189Z,5.80
2023-08-12T10:41:20.409Z,5.72
2023-08-12T10:44:07.208Z,5.38
2023-08-12T10:46:38.314Z,7.97
2023-08-12T10:49:07.027Z,8.15
2023-08-12T10:52:00.433Z,5.53
2023-08-12T10:54:33.080Z,5.95
2023-08-12T10:57:04.034Z,8.88
2023-08-12T10:59:46.493Z,9.43
2023-08-12T11:02:30.812Z,8.02
2023-08-12T11:05:02.793Z,4.65
2023-08-12T11:07:44.251Z,7.88
2023-08-12T11:10:14.492Z,6.18
2023-08-12T11:12:47.199Z,6.00
2023-08-12T11:15:14.360Z,6.72
2023-08-12T11:17:42.838Z,6.93
2023-08-12T11:20:12.043Z,5.43
2023-08-12T11:22:43.600Z,5.63
2023-08-12T11:25:13.009Z,6.18
2023-08-12T11:27:44.133Z,6.50
2023-08-12T11:30:13.590Z,7.55
2023-08-12T11:32:41.673Z,7.72
2023-08-12T11:35:09.903Z,6.82
2023-08-12T11:37:38.478Z,6.57
2023-08-12T11:40:07.815Z,4.90
2023-08-12T11:42:34.767Z,7.15
2023-08-12T11:45:01.722Z,6.50
2023-08-12T11:47:28.617Z,8.13
2023-08-12T11:49:55.971Z,8.57
2023-08-12T11:52:24.053Z,6.07
2023-08-12T11:54:51.948Z,10.43
2023-08-12T11:57:19.680Z,5.38
2023-08-12T11:59:47.593Z,6.20
2023-08-12T12:02:15.040Z,9.10
2023-08-12T12:04:44.335Z,6.32
2023-08-12T12:07:21.510Z,9.63
2023-08-12T12:09:51.775Z,5.55
2023-08-12T12:12:18.865Z,5.95
2023-08-12T12:14:48.302Z,9.40
2023-08-12T12:17:16.614Z,6.22
2023-08-12T12:19:44.594Z,7.35
2023-08-12T12:22:12.254Z,6.57
2023-08-12T12:24:49.173Z,10.15
2023-08-12T12:27:16.331Z,6.68
2023-08-12T12:29:43.313Z,7.32
2023-08-12T12:32:12.799Z,6.38
2023-08-12T12:34:39.988Z,9.10
2023-08-12T12:37:07.381Z,7.00
2023-08-12T12:39:35.130Z,5.57
2023-08-12T12:42:02.817Z,5.25
2023-08-12T12:44:29.808Z,3.92
2023-08-12T12:46:56.709Z,7.35
2023-08-12T12:49:23.950Z,7.57
2023-08-12T12:51:51.731Z,7.18
2023-08-12T12:54:18.988Z,6.03
2023-08-12T12:56:46.338Z,6.57
2023-08-12T12:59:13.764Z,10.57
2023-08-12T13:01:40.859Z,6.82
2023-08-12T13:04:09.694Z,11.10
2023-08-12T13:06:36.910Z,8.68
2023-08-12T13:09:04.332Z,7.40
2023-08-12T13:11:34.753Z,9.27
2023-08-12T13:14:02.212Z,8.40
2023-08-12T13:16:29.102Z,8.40
2023-08-12T13:18:57.009Z,5.68
2023-08-12T13:21:24.362Z,5.50
2023-08-12T13:23:52.028Z,5.68
2023-08-12T13:26:20.330Z,8.38
2023-08-12T13:28:48.059Z,12.88
2023-08-12T13:31:15.578Z,7.82
2023-08-12T13:33:45.012Z,7.10
2023-08-12T13:36:12.468Z,10.70
2023-08-12T13:38:39.560Z,9.18
2023-08-12T13:41:07.131Z,6.90
2023-08-12T13:43:34.148Z,10.65
2023-08-12T13:46:02.390Z,6.85
2023-08-12T13:48:30.125Z,11.10
2023-08-12T13:51:01.100Z,7.25
2023-08-12T13:53:28.701Z,5.03
2023-08-12T13:55:55.904Z,7.25
2023-08-12T13:58:22.844Z,11.55
2023-08-12T14:00:50.992Z,6.10
2023-08-12T14:03:18.049Z,6.70
2023-08-12T14:05:46.119Z,5.10
2023-08-12T14:08:13.311Z,9.27
2023-08-12T14:10:40.342Z,7.10
2023-08-12T14:13:08.214Z,7.25
2023-08-12T14:15:36.594Z,8.88
2023-08-12T14:18:04.960Z,7.72
2023-08-12T14:20:31.952Z,6.88
2023-08-12T14:22:58.857Z,8.95
2023-08-12T14:25:25.849Z,12.20
2023-08-12T14:27:52.902Z,8.18
2023-08-12T14:30:21.066Z,5.88
2023-08-12T14:32:49.612Z,8.23
2023-08-12T14:35:18.504Z,9.63
2023-08-12T14:37:45.535Z,7.50
2023-08-12T14:40:12.670Z,7.97
2023-08-12T14:42:39.519Z,11.27
2023-08-12T14:45:07.439Z,4.63
2023-08-12T14:47:34.599Z,9.48
2023-08-12T14:50:02.526Z,7.25
2023-08-12T14:52:29.867Z,8.50
2023-08-12T14:54:57.084Z,8.80
2023-08-12T14:57:24.441Z,8.05
2023-08-12T14:59:52.385Z,8.00
2023-08-12T15:02:22.743Z,10.93
2023-08-12T15:04:50.427Z,12.05
2023-08-12T15:07:18.023Z,6.82
2023-08-12T15:09:45.136Z,14.50
2023-08-12T15:12:12.035Z,14.00
2023-08-12T15:14:38.992Z,7.97
2023-08-12T15:17:05.959Z,6.30
2023-08-12T15:19:33.182Z,8.70
2023-08-12T15:22:00.213Z,10.93
2023-08-12T15:24:27.251Z,10.40
2023-08-12T15:26:54.362Z,7.10
2023-08-12T15:29:21.397Z,9.80
2023-08-12T15:31:48.585Z,12.15
2023-08-12T15:34:16.049Z,10.88
2023-08-12T15:36:43.423Z,13.80
2023-08-12T15:39:10.391Z,6.57
2023-08-12T15:41:42.213Z,9.50
2023-08-12T15:44:10.012Z,7.40
2023-08-12T15:46:37.479Z,13.10
2023-08-12T15:49:12.135Z,10.30
2023-08-12T15:51:42.754Z,10.25
2023-08-12T15:54:10.186Z,11.60
2023-08-12T15:56:38.335Z,12.85
2023-08-12T15:59:07.301Z,12.68
2023-08-12T16:01:34.985Z,13.93
2023-08-12T16:04:02.055Z,10.32
2023-08-12T16:06:29.710Z,8.40
2023-08-12T16:09:15.701Z,10.38
2023-08-12T16:11:44.420Z,13.98
2023-08-12T16:14:11.865Z,11.18
2023-08-12T16:16:40.714Z,9.95
2023-08-12T16:19:07.962Z,13.68
2023-08-12T16:21:35.151Z,9.30
2023-08-12T16:24:02.433Z,13.75
2023-08-12T16:26:29.466Z,11.52
2023-08-12T16:28:56.529Z,7.57
2023-08-12T16:31:24.687Z,7.45
2023-08-12T16:33:52.287Z,9.30
2023-08-12T16:36:19.174Z,9.13
2023-08-12T16:38:47.987Z,9.70
2023-08-12T16:41:17.671Z,7.97
2023-08-12T16:43:45.427Z,11.25
2023-08-12T16:46:12.842Z,10.57
2023-08-12T16:48:40.027Z,10.02
2023-08-12T16:51:07.010Z,9.65
2023-08-12T16:53:34.116Z,6.13
2023-08-12T16:56:01.391Z,9.13
2023-08-12T16:58:28.502Z,11.45
2023-08-12T17:00:55.842Z,14.20
2023-08-12T17:03:23.162Z,8.60
2023-08-12T17:05:50.684Z,8.02
2023-08-12T17:08:18.819Z,7.32
2023-08-12T17:10:45.827Z,8.63
2023-08-12T17:13:13.144Z,8.43
2023-08-12T17:15:42.084Z,12.02
2023-08-12T17:18:09.420Z,7.82
2023-08-12T17:20:39.332Z,9.90
2023-08-12T17:23:06.360Z,7.32
2023-08-12T17:25:33.315Z,9.00
2023-08-12T17:28:00.350Z,12.13
2023-08-12T17:30:27.392Z,9.52
2023-08-12T17:32:54.443Z,14.13
2023-08-12T17:35:21.504Z,8.50
2023-08-12T17:37:48.750Z,11.50
2023-08-12T17:40:17.778Z,7.75
2023-08-12T17:42:45.060Z,14.65
2023-08-12T17:45:12.382Z,9.88
2023-08-12T17:47:39.477Z,6.00
2023-08-12T17:50:10.103Z,13.20
2023-08-12T17:52:39.340Z,13.68
2023-08-12T17:55:07.237Z,7.85
2023-08-12T17:57:34.380Z,13.77
2023-08-12T18:00:01.502Z,9.55
2023-08-12T18:02:28.527Z,8.25
2023-08-12T18:04:55.580Z,11.32
2023-08-12T18:07:22.558Z,12.43
2023-08-12T18:09:50.795Z,11.60
2023-08-12T18:12:18.824Z,10.27
2023-08-12T18:14:45.934Z,8.38
2023-08-12T18:17:13.583Z,11.40
2023-08-12T18:19:40.615Z,12.55
2023-08-12T18:22:07.720Z,7.45
2023-08-12T18:24:34.754Z,11.80
2023-08-12T18:27:03.021Z,10.90
2023-08-12T18:29:31.999Z,10.73
2023-08-12T18:31:59.656Z,11.85
2023-08-12T18:34:26.661Z,12.43
2023-08-12T18:36:54.433Z,9.40
2023-08-12T18:39:21.622Z,12.10
2023-08-12T18:41:49.069Z,11.82
2023-08-12T18:44:16.562Z,16.70
2023-08-12T18:46:43.561Z,9.18
2023-08-12T18:49:10.579Z,9.15
2023-08-12T18:51:38.709Z,10.73
2023-08-12T18:54:05.984Z,13.55
2023-08-12T18:56:32.956Z,11.05
2023-08-12T18:58:59.962Z,11.85
2023-08-12T19:01:27.108Z,10.75
2023-08-12T19:03:54.436Z,15.85
2023-08-12T19:06:21.347Z,9.82
2023-08-12T19:08:48.376Z,7.20
2023-08-12T19:11:15.782Z,9.25
2023-08-12T19:13:43.025Z,14.93
2023-08-12T19:16:09.968Z,10.35
2023-08-12T19:18:37.212Z,12.73
2023-08-12T19:21:04.443Z,8.93
2023-08-12T19:23:31.419Z,15.30
2023-08-12T19:25:58.516Z,14.25
2023-08-12T19:28:25.850Z,10.32
2023-08-12T19:30:53.172Z,10.00
2023-08-12T19:33:20.589Z,8.07
2023-08-12T19:35:47.702Z,12.88
2023-08-12T19:38:16.138Z,9.85
2023-08-12T19:40:43.054Z,8.88
2023-08-12T19:43:10.397Z,12.93
2023-08-12T19:45:37.990Z,13.23
2023-08-12T19:48:05.476Z,17.52
2023-08-12T19:50:32.638Z,13.13
2023-08-12T19:52:59.715Z,9.35
2023-08-12T19:55:27.059Z,13.15
2023-08-12T19:57:54.203Z,11.05
2023-08-12T20:00:21.247Z,10.32
2023-08-12T20:02:48.349Z,14.68
2023-08-12T20:05:16.442Z,18.23
2023-08-12T20:07:48.997Z,12.90
2023-08-12T20:10:19.536Z,10.70
2023-08-12T20:12:46.955Z,13.80
2023-08-12T20:15:14.506Z,8.15
2023-08-12T20:17:41.962Z,15.07
2023-08-12T20:20:13.386Z,11.85
2023-08-12T20:22:50.941Z,7.30
2023-08-12T20:25:22.048Z,12.77
2023-08-12T20:27:49.382Z,10.68
2023-08-12T20:30:16.449Z,17.33
2023-08-12T20:32:43.779Z,17.67
2023-08-12T20:35:10.930Z,22.35
2023-08-12T20:37:38.070Z,15.30
2023-08-12T20:40:07.318Z,10.50
2023-08-12T20:42:34.182Z,18.25
2023-08-12T20:45:01.366Z,8.52
2023-08-12T20:47:28.328Z,15.23
2023-08-12T20:49:55.679Z,12.65
2023-08-12T20:52:22.717Z,11.02
2023-08-12T20:54:52.903Z,10.05
2023-08-12T20:57:20.274Z,14.60
2023-08-12T20:59:47.979Z,12.95
2023-08-12T21:02:15.148Z,16.50
2023-08-12T21:04:42.837Z,9.45
2023-08-12T21:07:09.649Z,15.07
2023-08-12T21:09:37.055Z,13.05
2023-08-12T21:12:04.935Z,11.52
2023-08-12T21:14:31.872Z,15.35
2023-08-12T21:16:58.931Z,11.15
2023-08-12T21:19:26.352Z,8.70
2023-08-12T21:21:53.753Z,10.68
2023-08-12T21:24:21.161Z,13.60
2023-08-12T21:26:52.349Z,12.95
2023-08-12T21:29:19.315Z,16.20
2023-08-12T21:31:46.241Z,17.70
2023-08-12T21:34:13.129Z,7.55
2023-08-12T21:36:40.324Z,11.35
2023-08-12T21:39:07.600Z,14.43
2023-08-12T21:41:34.752Z,10.88
2023-08-12T21:44:01.939Z,16.77
2023-08-12T21:46:29.325Z,18.50
2023-08-12T21:48:56.635Z,16.05
2023-08-12T21:51:24.407Z,14.45
2023-08-12T21:53:52.448Z,15.32
2023-08-12T21:56:19.659Z,17.75
2023-08-12T21:58:47.664Z,12.52
2023-08-12T22:01:15.108Z,13.20
2023-08-12T22:03:42.552Z,14.65
2023-08-12T22:06:09.542Z,18.70
2023-08-12T22:08:36.706Z,14.38
2023-08-12T22:11:03.841Z,16.05
2023-08-12T22:13:31.374Z,14.40
2023-08-12T22:15:58.471Z,14.65
2023-08-12T22:18:25.786Z,14.13
2023-08-12T22:20:55.588Z,13.85
2023-08-12T22:23:23.649Z,12.38
2023-08-12T22:25:51.426Z,12.38
2023-08-12T22:28:21.860Z,13.40
2023-08-12T22:30:49.171Z,13.00
2023-08-12T22:33:16.973Z,13.27
2023-08-12T22:35:44.170Z,12.70
2023-08-12T22:38:11.145Z,11.30
2023-08-12T22:40:38.591Z,17.23
2023-08-12T22:43:05.865Z,15.68
2023-08-12T22:45:42.893Z,13.55
2023-08-12T22:48:10.162Z,10.30
2023-08-12T22:50:37.380Z,16.45
2023-08-12T22:53:04.668Z,10.63
2023-08-12T22:55:31.622Z,6.22
2023-08-12T22:57:58.650Z,13.65
2023-08-12T23:00:25.779Z,9.55
2023-08-12T23:02:53.337Z,10.23
2023-08-12T23:05:20.292Z,14.90
2023-08-12T23:07:47.573Z,16.98
2023-08-12T23:10:14.549Z,10.10
2023-08-12T23:12:41.734Z,9.90
2023-08-12T23:15:09.002Z,12.05
2023-08-12T23:17:36.053Z,15.95
2023-08-12T23:20:04.967Z,14.05
2023-08-12T23:22:33.462Z,9.85
2023-08-12T23:25:00.687Z,12.98
2023-08-12T23:27:27.746Z,10.68
2023-08-12T23:29:54.998Z,12.60
2023-08-12T23:32:22.976Z,11.70
2023-08-12T23:34:50.182Z,10.13
2023-08-12T23:37:17.461Z,10.90
2023-08-12T23:39:44.579Z,11.95
2023-08-12T23:42:12.117Z,15.15
2023-08-12T23:44:39.736Z,20.83
2023-08-12T23:47:06.929Z,9.85
2023-08-12T23:49:34.134Z,12.48
2023-08-12T23:52:01.076Z,10.93
2023-08-12T23:54:28.039Z,12.52
2023-08-12T23:56:54.960Z,13.80
2023-08-12T23:59:22.240Z,9.57
